sensor_id;sensor_type;location;lat;lon;timestamp;P1;durP1;ratioP1;P2;durP2;ratioP2
10934;SDS011;5520;45.752;4.874;2023-02-04T00:00:30;2.30;;;2.00;;
10934;SDS011;5520;45.752;4.874;2023-02-04T00:03:03;1.57;;;1.47;;
10934;SDS011;5520;45.752;4.874;2023-02-04T00:05:31;1.97;;;1.73;;
10934;SDS011;5520;45.752;4.874;2023-02-04T00:07:59;1.97;;;1.73;;
10934;SDS011;5520;45.752;4.874;2023-02-04T00:10:28;3.27;;;1.40;;
10934;SDS011;5520;45.752;4.874;2023-02-04T00:12:57;2.47;;;1.80;;
10934;SDS011;5520;45.752;4.874;2023-02-04T00:15:25;2.87;;;1.70;;
10934;SDS011;5520;45.752;4.874;2023-02-04T00:17:53;1.50;;;1.40;;
10934;SDS011;5520;45.752;4.874;2023-02-04T00:20:21;1.67;;;1.57;;
10934;SDS011;5520;45.752;4.874;2023-02-04T00:22:49;2.13;;;1.63;;
10934;SDS011;5520;45.752;4.874;2023-02-04T00:25:17;2.70;;;1.73;;
10934;SDS011;5520;45.752;4.874;2023-02-04T00:27:45;1.40;;;1.30;;
10934;SDS011;5520;45.752;4.874;2023-02-04T00:30:15;2.00;;;1.60;;
10934;SDS011;5520;45.752;4.874;2023-02-04T00:32:43;1.77;;;1.40;;
10934;SDS011;5520;45.752;4.874;2023-02-04T00:35:11;6.83;;;2.40;;
10934;SDS011;5520;45.752;4.874;2023-02-04T00:37:39;3.80;;;1.50;;
10934;SDS011;5520;45.752;4.874;2023-02-04T00:40:07;1.77;;;1.47;;
10934;SDS011;5520;45.752;4.874;2023-02-04T00:42:36;2.50;;;1.63;;
10934;SDS011;5520;45.752;4.874;2023-02-04T00:45:04;2.63;;;1.63;;
10934;SDS011;5520;45.752;4.874;2023-02-04T00:47:34;1.23;;;1.10;;
10934;SDS011;5520;45.752;4.874;2023-02-04T00:50:02;2.70;;;1.33;;
10934;SDS011;5520;45.752;4.874;2023-02-04T00:52:30;1.37;;;1.27;;
10934;SDS011;5520;45.752;4.874;2023-02-04T00:54:58;2.03;;;1.53;;
10934;SDS011;5520;45.752;4.874;2023-02-04T00:57:26;1.53;;;1.43;;
10934;SDS011;5520;45.752;4.874;2023-02-04T00:59:54;1.50;;;1.40;;
10934;SDS011;5520;45.752;4.874;2023-02-04T01:02:22;2.13;;;1.40;;
10934;SDS011;5520;45.752;4.874;2023-02-04T01:04:51;1.83;;;1.40;;
10934;SDS011;5520;45.752;4.874;2023-02-04T01:07:19;3.07;;;1.30;;
10934;SDS011;5520;45.752;4.874;2023-02-04T01:09:47;1.40;;;1.30;;
10934;SDS011;5520;45.752;4.874;2023-02-04T01:12:15;1.40;;;1.23;;
10934;SDS011;5520;45.752;4.874;2023-02-04T01:14:43;3.57;;;1.30;;
10934;SDS011;5520;45.752;4.874;2023-02-04T01:17:11;1.30;;;1.20;;
10934;SDS011;5520;45.752;4.874;2023-02-04T01:19:39;1.60;;;1.07;;
10934;SDS011;5520;45.752;4.874;2023-02-04T01:22:09;2.27;;;1.20;;
10934;SDS011;5520;45.752;4.874;2023-02-04T01:24:36;1.03;;;1.00;;
10934;SDS011;5520;45.752;4.874;2023-02-04T01:27:04;1.30;;;1.20;;
10934;SDS011;5520;45.752;4.874;2023-02-04T01:29:32;1.70;;;1.30;;
10934;SDS011;5520;45.752;4.874;2023-02-04T01:32:00;1.73;;;1.20;;
10934;SDS011;5520;45.752;4.874;2023-02-04T01:34:28;1.30;;;1.20;;
10934;SDS011;5520;45.752;4.874;2023-02-04T01:36:57;2.60;;;1.23;;
10934;SDS011;5520;45.752;4.874;2023-02-04T01:39:26;1.50;;;1.33;;
10934;SDS011;5520;45.752;4.874;2023-02-04T01:41:54;0.90;;;0.90;;
10934;SDS011;5520;45.752;4.874;2023-02-04T01:44:23;2.47;;;1.20;;
10934;SDS011;5520;45.752;4.874;2023-02-04T01:46:51;1.70;;;1.27;;
10934;SDS011;5520;45.752;4.874;2023-02-04T01:49:19;1.10;;;1.10;;
10934;SDS011;5520;45.752;4.874;2023-02-04T01:51:47;1.30;;;1.20;;
10934;SDS011;5520;45.752;4.874;2023-02-04T01:54:15;1.83;;;1.20;;
10934;SDS011;5520;45.752;4.874;2023-02-04T01:56:45;1.20;;;1.10;;
10934;SDS011;5520;45.752;4.874;2023-02-04T01:59:15;1.30;;;1.20;;
10934;SDS011;5520;45.752;4.874;2023-02-04T02:01:44;3.17;;;1.33;;
10934;SDS011;5520;45.752;4.874;2023-02-04T02:04:13;1.37;;;1.27;;
10934;SDS011;5520;45.752;4.874;2023-02-04T02:06:43;0.90;;;0.90;;
10934;SDS011;5520;45.752;4.874;2023-02-04T02:09:12;1.37;;;0.90;;
10934;SDS011;5520;45.752;4.874;2023-02-04T02:11:40;1.00;;;0.90;;
10934;SDS011;5520;45.752;4.874;2023-02-04T02:14:09;1.10;;;1.10;;
10934;SDS011;5520;45.752;4.874;2023-02-04T02:16:38;1.30;;;1.20;;
10934;SDS011;5520;45.752;4.874;2023-02-04T02:19:06;1.20;;;1.20;;
10934;SDS011;5520;45.752;4.874;2023-02-04T02:21:38;1.70;;;1.10;;
10934;SDS011;5520;45.752;4.874;2023-02-04T02:26:51;1.83;;;1.40;;
10934;SDS011;5520;45.752;4.874;2023-02-04T02:29:19;1.40;;;0.80;;
10934;SDS011;5520;45.752;4.874;2023-02-04T02:31:47;1.00;;;1.00;;
10934;SDS011;5520;45.752;4.874;2023-02-04T02:34:16;1.10;;;1.00;;
10934;SDS011;5520;45.752;4.874;2023-02-04T02:36:44;1.27;;;1.17;;
10934;SDS011;5520;45.752;4.874;2023-02-04T02:39:12;1.37;;;1.20;;
10934;SDS011;5520;45.752;4.874;2023-02-04T02:41:41;1.13;;;1.00;;
10934;SDS011;5520;45.752;4.874;2023-02-04T02:44:11;1.40;;;1.30;;
10934;SDS011;5520;45.752;4.874;2023-02-04T02:46:41;4.33;;;1.23;;
10934;SDS011;5520;45.752;4.874;2023-02-04T02:49:10;1.30;;;1.20;;
10934;SDS011;5520;45.752;4.874;2023-02-04T02:51:39;1.77;;;1.30;;
10934;SDS011;5520;45.752;4.874;2023-02-04T02:54:07;1.20;;;1.10;;
10934;SDS011;5520;45.752;4.874;2023-02-04T02:56:39;1.87;;;1.23;;
10934;SDS011;5520;45.752;4.874;2023-02-04T02:59:15;1.87;;;1.20;;
10934;SDS011;5520;45.752;4.874;2023-02-04T03:01:43;2.33;;;1.37;;
10934;SDS011;5520;45.752;4.874;2023-02-04T03:04:13;2.37;;;1.50;;
10934;SDS011;5520;45.752;4.874;2023-02-04T03:06:41;1.83;;;1.23;;
10934;SDS011;5520;45.752;4.874;2023-02-04T03:09:09;2.03;;;1.33;;
10934;SDS011;5520;45.752;4.874;2023-02-04T03:11:37;1.40;;;1.30;;
10934;SDS011;5520;45.752;4.874;2023-02-04T03:14:05;2.73;;;1.60;;
10934;SDS011;5520;45.752;4.874;2023-02-04T03:16:35;2.30;;;1.37;;
10934;SDS011;5520;45.752;4.874;2023-02-04T03:19:03;1.37;;;1.27;;
10934;SDS011;5520;45.752;4.874;2023-02-04T03:21:33;3.00;;;1.70;;
10934;SDS011;5520;45.752;4.874;2023-02-04T03:24:01;2.43;;;1.60;;
10934;SDS011;5520;45.752;4.874;2023-02-04T03:26:29;2.03;;;1.40;;
10934;SDS011;5520;45.752;4.874;2023-02-04T03:28:57;1.87;;;1.23;;
10934;SDS011;5520;45.752;4.874;2023-02-04T03:31:25;2.23;;;1.37;;
10934;SDS011;5520;45.752;4.874;2023-02-04T03:33:55;3.07;;;1.80;;
10934;SDS011;5520;45.752;4.874;2023-02-04T03:36:23;2.73;;;1.30;;
10934;SDS011;5520;45.752;4.874;2023-02-04T03:38:51;2.27;;;1.60;;
10934;SDS011;5520;45.752;4.874;2023-02-04T03:41:19;2.17;;;1.60;;
10934;SDS011;5520;45.752;4.874;2023-02-04T03:43:47;2.20;;;1.40;;
10934;SDS011;5520;45.752;4.874;2023-02-04T03:46:15;2.43;;;1.90;;
10934;SDS011;5520;45.752;4.874;2023-02-04T03:48:43;1.67;;;1.53;;
10934;SDS011;5520;45.752;4.874;2023-02-04T03:51:13;1.80;;;1.70;;
10934;SDS011;5520;45.752;4.874;2023-02-04T03:53:41;1.77;;;1.60;;
10934;SDS011;5520;45.752;4.874;2023-02-04T03:56:08;1.93;;;1.53;;
10934;SDS011;5520;45.752;4.874;2023-02-04T03:58:37;1.60;;;1.50;;
10934;SDS011;5520;45.752;4.874;2023-02-04T04:01:05;1.57;;;1.47;;
10934;SDS011;5520;45.752;4.874;2023-02-04T04:03:33;3.10;;;1.73;;
10934;SDS011;5520;45.752;4.874;2023-02-04T04:06:01;1.97;;;1.77;;
10934;SDS011;5520;45.752;4.874;2023-02-04T04:08:33;1.90;;;1.80;;
10934;SDS011;5520;45.752;4.874;2023-02-04T04:11:01;2.93;;;1.60;;
10934;SDS011;5520;45.752;4.874;2023-02-04T04:13:28;1.53;;;1.43;;
10934;SDS011;5520;45.752;4.874;2023-02-04T04:15:56;3.97;;;1.90;;
10934;SDS011;5520;45.752;4.874;2023-02-04T04:18:24;2.70;;;1.47;;
10934;SDS011;5520;45.752;4.874;2023-02-04T04:20:52;2.77;;;1.73;;
10934;SDS011;5520;45.752;4.874;2023-02-04T04:23:20;1.60;;;1.50;;
10934;SDS011;5520;45.752;4.874;2023-02-04T04:25:50;2.13;;;1.60;;
10934;SDS011;5520;45.752;4.874;2023-02-04T04:28:17;4.40;;;1.90;;
10934;SDS011;5520;45.752;4.874;2023-02-04T04:30:45;2.33;;;1.67;;
10934;SDS011;5520;45.752;4.874;2023-02-04T04:33:13;1.80;;;1.57;;
10934;SDS011;5520;45.752;4.874;2023-02-04T04:35:41;1.63;;;1.53;;
10934;SDS011;5520;45.752;4.874;2023-02-04T04:38:09;2.23;;;1.60;;
10934;SDS011;5520;45.752;4.874;2023-02-04T04:40:37;1.60;;;1.50;;
10934;SDS011;5520;45.752;4.874;2023-02-04T04:43:06;4.30;;;1.90;;
10934;SDS011;5520;45.752;4.874;2023-02-04T04:45:34;2.20;;;2.00;;
10934;SDS011;5520;45.752;4.874;2023-02-04T04:48:02;2.30;;;1.57;;
10934;SDS011;5520;45.752;4.874;2023-02-04T04:50:30;2.50;;;1.80;;
10934;SDS011;5520;45.752;4.874;2023-02-04T04:52:59;2.30;;;1.83;;
10934;SDS011;5520;45.752;4.874;2023-02-04T04:55:27;2.80;;;2.13;;
10934;SDS011;5520;45.752;4.874;2023-02-04T04:57:56;2.63;;;2.03;;
10934;SDS011;5520;45.752;4.874;2023-02-04T05:00:25;2.97;;;1.97;;
10934;SDS011;5520;45.752;4.874;2023-02-04T05:02:53;2.77;;;1.90;;
10934;SDS011;5520;45.752;4.874;2023-02-04T05:05:21;2.27;;;2.07;;
10934;SDS011;5520;45.752;4.874;2023-02-04T05:07:49;4.53;;;2.13;;
10934;SDS011;5520;45.752;4.874;2023-02-04T05:10:17;2.03;;;1.93;;
10934;SDS011;5520;45.752;4.874;2023-02-04T05:12:47;2.40;;;2.20;;
10934;SDS011;5520;45.752;4.874;2023-02-04T05:15:15;2.37;;;2.17;;
10934;SDS011;5520;45.752;4.874;2023-02-04T05:17:48;2.60;;;2.40;;
10934;SDS011;5520;45.752;4.874;2023-02-04T05:20:16;2.67;;;2.37;;
10934;SDS011;5520;45.752;4.874;2023-02-04T05:22:44;4.13;;;2.40;;
10934;SDS011;5520;45.752;4.874;2023-02-04T05:25:12;2.27;;;2.00;;
10934;SDS011;5520;45.752;4.874;2023-02-04T05:27:42;4.37;;;2.40;;
10934;SDS011;5520;45.752;4.874;2023-02-04T05:30:10;2.83;;;2.10;;
10934;SDS011;5520;45.752;4.874;2023-02-04T05:32:39;3.30;;;2.50;;
10934;SDS011;5520;45.752;4.874;2023-02-04T05:35:08;3.57;;;2.60;;
10934;SDS011;5520;45.752;4.874;2023-02-04T05:37:37;2.50;;;2.20;;
10934;SDS011;5520;45.752;4.874;2023-02-04T05:40:06;3.13;;;2.30;;
10934;SDS011;5520;45.752;4.874;2023-02-04T05:42:34;3.40;;;2.40;;
10934;SDS011;5520;45.752;4.874;2023-02-04T05:45:02;5.07;;;2.47;;
10934;SDS011;5520;45.752;4.874;2023-02-04T05:47:30;5.17;;;2.30;;
10934;SDS011;5520;45.752;4.874;2023-02-04T05:49:58;2.97;;;2.77;;
10934;SDS011;5520;45.752;4.874;2023-02-04T05:52:28;4.80;;;2.47;;
10934;SDS011;5520;45.752;4.874;2023-02-04T05:54:56;2.60;;;2.30;;
10934;SDS011;5520;45.752;4.874;2023-02-04T05:57:24;3.13;;;2.43;;
10934;SDS011;5520;45.752;4.874;2023-02-04T05:59:52;2.70;;;2.50;;
10934;SDS011;5520;45.752;4.874;2023-02-04T06:02:20;3.90;;;2.27;;
10934;SDS011;5520;45.752;4.874;2023-02-04T06:04:48;3.93;;;2.40;;
10934;SDS011;5520;45.752;4.874;2023-02-04T06:07:16;2.60;;;2.33;;
10934;SDS011;5520;45.752;4.874;2023-02-04T06:09:46;2.40;;;2.20;;
10934;SDS011;5520;45.752;4.874;2023-02-04T06:12:15;3.60;;;2.47;;
10934;SDS011;5520;45.752;4.874;2023-02-04T06:14:43;4.27;;;2.50;;
10934;SDS011;5520;45.752;4.874;2023-02-04T06:17:11;3.80;;;2.37;;
10934;SDS011;5520;45.752;4.874;2023-02-04T06:19:39;3.10;;;2.50;;
10934;SDS011;5520;45.752;4.874;2023-02-04T06:22:07;2.43;;;2.23;;
10934;SDS011;5520;45.752;4.874;2023-02-04T06:24:35;4.50;;;3.13;;
10934;SDS011;5520;45.752;4.874;2023-02-04T06:27:05;2.67;;;2.47;;
10934;SDS011;5520;45.752;4.874;2023-02-04T06:29:33;4.30;;;2.40;;
10934;SDS011;5520;45.752;4.874;2023-02-04T06:32:00;3.00;;;2.73;;
10934;SDS011;5520;45.752;4.874;2023-02-04T06:34:28;3.17;;;2.30;;
10934;SDS011;5520;45.752;4.874;2023-02-04T06:36:59;2.57;;;2.37;;
10934;SDS011;5520;45.752;4.874;2023-02-04T06:39:27;3.37;;;2.60;;
10934;SDS011;5520;45.752;4.874;2023-02-04T06:41:55;5.67;;;2.73;;
10934;SDS011;5520;45.752;4.874;2023-02-04T06:44:25;3.10;;;2.83;;
10934;SDS011;5520;45.752;4.874;2023-02-04T06:46:53;3.77;;;2.60;;
10934;SDS011;5520;45.752;4.874;2023-02-04T06:49:21;3.57;;;2.70;;
10934;SDS011;5520;45.752;4.874;2023-02-04T06:51:50;3.13;;;2.70;;
10934;SDS011;5520;45.752;4.874;2023-02-04T06:54:18;3.67;;;2.90;;
10934;SDS011;5520;45.752;4.874;2023-02-04T06:56:46;2.97;;;2.63;;
10934;SDS011;5520;45.752;4.874;2023-02-04T06:59:14;4.17;;;2.27;;
10934;SDS011;5520;45.752;4.874;2023-02-04T07:01:43;2.57;;;2.40;;
10934;SDS011;5520;45.752;4.874;2023-02-04T07:04:11;2.80;;;2.40;;
10934;SDS011;5520;45.752;4.874;2023-02-04T07:06:39;5.37;;;2.90;;
10934;SDS011;5520;45.752;4.874;2023-02-04T07:09:07;4.73;;;2.40;;
10934;SDS011;5520;45.752;4.874;2023-02-04T07:11:35;4.97;;;2.60;;
10934;SDS011;5520;45.752;4.874;2023-02-04T07:14:03;4.07;;;2.70;;
10934;SDS011;5520;45.752;4.874;2023-02-04T07:16:31;2.40;;;2.20;;
10934;SDS011;5520;45.752;4.874;2023-02-04T07:19:00;9.13;;;2.93;;
10934;SDS011;5520;45.752;4.874;2023-02-04T07:21:28;3.23;;;2.47;;
10934;SDS011;5520;45.752;4.874;2023-02-04T07:23:56;3.30;;;2.63;;
10934;SDS011;5520;45.752;4.874;2023-02-04T07:26:24;3.10;;;2.70;;
10934;SDS011;5520;45.752;4.874;2023-02-04T07:28:52;3.00;;;2.67;;
10934;SDS011;5520;45.752;4.874;2023-02-04T07:31:20;3.90;;;3.00;;
10934;SDS011;5520;45.752;4.874;2023-02-04T07:33:48;3.17;;;2.70;;
10934;SDS011;5520;45.752;4.874;2023-02-04T07:36:17;3.67;;;3.07;;
10934;SDS011;5520;45.752;4.874;2023-02-04T07:38:45;4.63;;;2.93;;
10934;SDS011;5520;45.752;4.874;2023-02-04T07:41:13;4.77;;;3.37;;
10934;SDS011;5520;45.752;4.874;2023-02-04T07:43:41;3.37;;;2.67;;
10934;SDS011;5520;45.752;4.874;2023-02-04T07:46:09;3.73;;;2.70;;
10934;SDS011;5520;45.752;4.874;2023-02-04T07:48:37;3.47;;;2.97;;
10934;SDS011;5520;45.752;4.874;2023-02-04T07:51:05;3.27;;;2.87;;
10934;SDS011;5520;45.752;4.874;2023-02-04T07:53:34;7.47;;;3.10;;
10934;SDS011;5520;45.752;4.874;2023-02-04T07:56:02;4.77;;;2.50;;
10934;SDS011;5520;45.752;4.874;2023-02-04T07:58:30;3.53;;;2.53;;
10934;SDS011;5520;45.752;4.874;2023-02-04T08:00:58;5.83;;;2.33;;
10934;SDS011;5520;45.752;4.874;2023-02-04T08:03:26;3.80;;;2.43;;
10934;SDS011;5520;45.752;4.874;2023-02-04T08:05:54;2.53;;;2.33;;
10934;SDS011;5520;45.752;4.874;2023-02-04T08:08:22;7.87;;;2.70;;
10934;SDS011;5520;45.752;4.874;2023-02-04T08:10:52;2.60;;;2.40;;
10934;SDS011;5520;45.752;4.874;2023-02-04T08:13:20;3.27;;;2.63;;
10934;SDS011;5520;45.752;4.874;2023-02-04T08:15:48;3.97;;;2.30;;
10934;SDS011;5520;45.752;4.874;2023-02-04T08:18:16;4.20;;;3.00;;
10934;SDS011;5520;45.752;4.874;2023-02-04T08:20:44;3.00;;;2.00;;
10934;SDS011;5520;45.752;4.874;2023-02-04T08:23:12;2.60;;;2.40;;
10934;SDS011;5520;45.752;4.874;2023-02-04T08:25:39;2.40;;;2.20;;
10934;SDS011;5520;45.752;4.874;2023-02-04T08:28:09;2.43;;;2.23;;
10934;SDS011;5520;45.752;4.874;2023-02-04T08:30:37;4.90;;;2.10;;
10934;SDS011;5520;45.752;4.874;2023-02-04T08:33:05;2.57;;;2.37;;
10934;SDS011;5520;45.752;4.874;2023-02-04T08:35:33;2.23;;;2.00;;
10934;SDS011;5520;45.752;4.874;2023-02-04T08:38:01;3.00;;;2.20;;
10934;SDS011;5520;45.752;4.874;2023-02-04T08:40:29;6.33;;;2.47;;
10934;SDS011;5520;45.752;4.874;2023-02-04T08:42:57;3.43;;;2.70;;
10934;SDS011;5520;45.752;4.874;2023-02-04T08:45:27;3.13;;;2.77;;
10934;SDS011;5520;45.752;4.874;2023-02-04T08:47:55;2.40;;;2.20;;
10934;SDS011;5520;45.752;4.874;2023-02-04T08:50:23;2.93;;;2.60;;
10934;SDS011;5520;45.752;4.874;2023-02-04T08:52:52;6.20;;;2.33;;
10934;SDS011;5520;45.752;4.874;2023-02-04T08:55:20;2.50;;;2.30;;
10934;SDS011;5520;45.752;4.874;2023-02-04T08:57:48;2.53;;;2.30;;
10934;SDS011;5520;45.752;4.874;2023-02-04T09:00:16;2.90;;;2.23;;
10934;SDS011;5520;45.752;4.874;2023-02-04T09:02:46;3.07;;;2.77;;
10934;SDS011;5520;45.752;4.874;2023-02-04T09:05:15;2.77;;;2.50;;
10934;SDS011;5520;45.752;4.874;2023-02-04T09:07:43;6.03;;;2.53;;
10934;SDS011;5520;45.752;4.874;2023-02-04T09:10:11;3.70;;;2.83;;
10934;SDS011;5520;45.752;4.874;2023-02-04T09:12:39;3.10;;;2.50;;
10934;SDS011;5520;45.752;4.874;2023-02-04T09:15:08;8.77;;;2.80;;
10934;SDS011;5520;45.752;4.874;2023-02-04T09:17:36;3.83;;;3.43;;
10934;SDS011;5520;45.752;4.874;2023-02-04T09:20:06;5.20;;;2.90;;
10934;SDS011;5520;45.752;4.874;2023-02-04T09:22:34;4.00;;;2.70;;
10934;SDS011;5520;45.752;4.874;2023-02-04T09:25:03;2.87;;;2.63;;
10934;SDS011;5520;45.752;4.874;2023-02-04T09:27:31;2.60;;;2.40;;
10934;SDS011;5520;45.752;4.874;2023-02-04T09:29:59;3.97;;;3.13;;
10934;SDS011;5520;45.752;4.874;2023-02-04T09:32:27;3.20;;;2.63;;
10934;SDS011;5520;45.752;4.874;2023-02-04T09:34:55;4.10;;;2.60;;
10934;SDS011;5520;45.752;4.874;2023-02-04T09:37:24;2.77;;;2.50;;
10934;SDS011;5520;45.752;4.874;2023-02-04T09:39:54;2.40;;;2.20;;
10934;SDS011;5520;45.752;4.874;2023-02-04T09:42:22;3.90;;;2.40;;
10934;SDS011;5520;45.752;4.874;2023-02-04T09:44:51;3.03;;;2.53;;
10934;SDS011;5520;45.752;4.874;2023-02-04T09:47:20;2.37;;;2.17;;
10934;SDS011;5520;45.752;4.874;2023-02-04T09:49:48;2.70;;;2.50;;
10934;SDS011;5520;45.752;4.874;2023-02-04T09:52:16;4.67;;;2.53;;
10934;SDS011;5520;45.752;4.874;2023-02-04T09:54:46;2.93;;;2.67;;
10934;SDS011;5520;45.752;4.874;2023-02-04T09:57:15;6.17;;;2.30;;
10934;SDS011;5520;45.752;4.874;2023-02-04T09:59:44;8.13;;;2.33;;
10934;SDS011;5520;45.752;4.874;2023-02-04T10:02:16;3.53;;;2.20;;
10934;SDS011;5520;45.752;4.874;2023-02-04T10:04:46;2.03;;;1.87;;
10934;SDS011;5520;45.752;4.874;2023-02-04T10:07:14;2.43;;;2.10;;
10934;SDS011;5520;45.752;4.874;2023-02-04T10:09:51;2.77;;;2.13;;
10934;SDS011;5520;45.752;4.874;2023-02-04T10:12:19;2.23;;;2.03;;
10934;SDS011;5520;45.752;4.874;2023-02-04T10:14:48;1.90;;;1.80;;
10934;SDS011;5520;45.752;4.874;2023-02-04T10:17:17;1.53;;;1.43;;
10934;SDS011;5520;45.752;4.874;2023-02-04T10:19:47;5.63;;;1.93;;
10934;SDS011;5520;45.752;4.874;2023-02-04T10:22:15;3.83;;;2.37;;
10934;SDS011;5520;45.752;4.874;2023-02-04T10:24:44;2.30;;;2.10;;
10934;SDS011;5520;45.752;4.874;2023-02-04T10:27:14;1.90;;;1.80;;
10934;SDS011;5520;45.752;4.874;2023-02-04T10:29:53;2.27;;;1.70;;
10934;SDS011;5520;45.752;4.874;2023-02-04T10:32:28;2.40;;;2.10;;
10934;SDS011;5520;45.752;4.874;2023-02-04T10:34:57;4.37;;;1.60;;
10934;SDS011;5520;45.752;4.874;2023-02-04T10:37:25;3.37;;;2.10;;
10934;SDS011;5520;45.752;4.874;2023-02-04T10:39:53;3.83;;;2.40;;
10934;SDS011;5520;45.752;4.874;2023-02-04T10:42:23;3.47;;;2.50;;
10934;SDS011;5520;45.752;4.874;2023-02-04T10:44:51;3.40;;;2.63;;
10934;SDS011;5520;45.752;4.874;2023-02-04T10:47:20;3.07;;;2.47;;
10934;SDS011;5520;45.752;4.874;2023-02-04T10:49:51;2.33;;;2.13;;
10934;SDS011;5520;45.752;4.874;2023-02-04T10:52:20;2.53;;;2.33;;
10934;SDS011;5520;45.752;4.874;2023-02-04T10:54:48;2.20;;;2.00;;
10934;SDS011;5520;45.752;4.874;2023-02-04T10:57:17;2.27;;;2.00;;
10934;SDS011;5520;45.752;4.874;2023-02-04T10:59:48;2.17;;;1.97;;
10934;SDS011;5520;45.752;4.874;2023-02-04T11:02:31;1.60;;;1.50;;
10934;SDS011;5520;45.752;4.874;2023-02-04T11:05:02;2.23;;;1.70;;
10934;SDS011;5520;45.752;4.874;2023-02-04T11:07:30;3.03;;;1.63;;
10934;SDS011;5520;45.752;4.874;2023-02-04T11:09:58;1.70;;;1.60;;
10934;SDS011;5520;45.752;4.874;2023-02-04T11:12:35;3.13;;;1.77;;
10934;SDS011;5520;45.752;4.874;2023-02-04T11:15:05;2.67;;;1.70;;
10934;SDS011;5520;45.752;4.874;2023-02-04T11:17:34;1.60;;;1.50;;
10934;SDS011;5520;45.752;4.874;2023-02-04T11:20:12;2.17;;;1.90;;
10934;SDS011;5520;45.752;4.874;2023-02-04T11:22:41;2.67;;;1.83;;
10934;SDS011;5520;45.752;4.874;2023-02-04T11:27:56;1.63;;;1.53;;
10934;SDS011;5520;45.752;4.874;2023-02-04T11:30:30;2.40;;;2.20;;
10934;SDS011;5520;45.752;4.874;2023-02-04T11:33:00;3.53;;;2.00;;
10934;SDS011;5520;45.752;4.874;2023-02-04T11:35:28;2.10;;;1.57;;
10934;SDS011;5520;45.752;4.874;2023-02-04T11:37:57;1.90;;;1.80;;
10934;SDS011;5520;45.752;4.874;2023-02-04T11:40:26;3.17;;;1.77;;
10934;SDS011;5520;45.752;4.874;2023-02-04T11:42:55;3.10;;;2.00;;
10934;SDS011;5520;45.752;4.874;2023-02-04T11:45:24;3.30;;;1.80;;
10934;SDS011;5520;45.752;4.874;2023-02-04T11:47:55;1.90;;;1.80;;
10934;SDS011;5520;45.752;4.874;2023-02-04T11:50:24;2.40;;;2.00;;
10934;SDS011;5520;45.752;4.874;2023-02-04T11:52:54;2.00;;;1.90;;
10934;SDS011;5520;45.752;4.874;2023-02-04T11:55:22;2.57;;;1.97;;
10934;SDS011;5520;45.752;4.874;2023-02-04T11:57:52;2.23;;;2.00;;
10934;SDS011;5520;45.752;4.874;2023-02-04T12:00:21;2.43;;;2.10;;
10934;SDS011;5520;45.752;4.874;2023-02-04T12:02:49;3.37;;;1.43;;
10934;SDS011;5520;45.752;4.874;2023-02-04T12:05:20;2.20;;;1.53;;
10934;SDS011;5520;45.752;4.874;2023-02-04T12:07:48;1.83;;;1.73;;
10934;SDS011;5520;45.752;4.874;2023-02-04T12:10:23;1.93;;;1.73;;
10934;SDS011;5520;45.752;4.874;2023-02-04T12:12:51;1.80;;;1.70;;
10934;SDS011;5520;45.752;4.874;2023-02-04T12:15:22;2.20;;;2.00;;
10934;SDS011;5520;45.752;4.874;2023-02-04T12:18:00;2.27;;;2.10;;
10934;SDS011;5520;45.752;4.874;2023-02-04T12:20:29;3.20;;;1.73;;
10934;SDS011;5520;45.752;4.874;2023-02-04T12:22:57;1.50;;;1.40;;
10934;SDS011;5520;45.752;4.874;2023-02-04T12:25:25;3.87;;;2.07;;
10934;SDS011;5520;45.752;4.874;2023-02-04T12:27:53;2.10;;;2.00;;
10934;SDS011;5520;45.752;4.874;2023-02-04T12:30:22;2.50;;;1.80;;
10934;SDS011;5520;45.752;4.874;2023-02-04T12:32:51;1.90;;;1.80;;
10934;SDS011;5520;45.752;4.874;2023-02-04T12:35:19;1.93;;;1.83;;
10934;SDS011;5520;45.752;4.874;2023-02-04T12:37:48;2.23;;;1.60;;
10934;SDS011;5520;45.752;4.874;2023-02-04T12:40:16;1.80;;;1.70;;
10934;SDS011;5520;45.752;4.874;2023-02-04T12:42:45;2.10;;;1.90;;
10934;SDS011;5520;45.752;4.874;2023-02-04T12:45:14;1.80;;;1.70;;
10934;SDS011;5520;45.752;4.874;2023-02-04T12:47:43;1.87;;;1.77;;
10934;SDS011;5520;45.752;4.874;2023-02-04T12:50:11;2.13;;;1.57;;
10934;SDS011;5520;45.752;4.874;2023-02-04T12:52:40;2.20;;;2.00;;
10934;SDS011;5520;45.752;4.874;2023-02-04T12:55:09;2.03;;;1.60;;
10934;SDS011;5520;45.752;4.874;2023-02-04T12:57:37;1.60;;;1.50;;
10934;SDS011;5520;45.752;4.874;2023-02-04T13:00:05;2.47;;;1.67;;
10934;SDS011;5520;45.752;4.874;2023-02-04T13:02:33;2.80;;;2.10;;
10934;SDS011;5520;45.752;4.874;2023-02-04T13:05:01;1.60;;;1.50;;
10934;SDS011;5520;45.752;4.874;2023-02-04T13:07:29;1.70;;;1.57;;
10934;SDS011;5520;45.752;4.874;2023-02-04T13:09:58;5.63;;;1.60;;
10934;SDS011;5520;45.752;4.874;2023-02-04T13:12:28;3.17;;;1.87;;
10934;SDS011;5520;45.752;4.874;2023-02-04T13:14:56;1.60;;;1.50;;
10934;SDS011;5520;45.752;4.874;2023-02-04T13:17:24;2.20;;;1.50;;
10934;SDS011;5520;45.752;4.874;2023-02-04T13:19:52;2.03;;;1.90;;
10934;SDS011;5520;45.752;4.874;2023-02-04T13:22:19;1.77;;;1.67;;
10934;SDS011;5520;45.752;4.874;2023-02-04T13:24:47;1.50;;;1.40;;
10934;SDS011;5520;45.752;4.874;2023-02-04T13:27:15;2.07;;;1.70;;
10934;SDS011;5520;45.752;4.874;2023-02-04T13:29:45;4.13;;;1.40;;
10934;SDS011;5520;45.752;4.874;2023-02-04T13:32:13;3.73;;;2.00;;
10934;SDS011;5520;45.752;4.874;2023-02-04T13:34:40;1.80;;;1.70;;
10934;SDS011;5520;45.752;4.874;2023-02-04T13:37:08;4.73;;;1.67;;
10934;SDS011;5520;45.752;4.874;2023-02-04T13:39:36;1.63;;;1.53;;
10934;SDS011;5520;45.752;4.874;2023-02-04T13:42:05;1.97;;;1.87;;
10934;SDS011;5520;45.752;4.874;2023-02-04T13:44:32;1.87;;;1.77;;
10934;SDS011;5520;45.752;4.874;2023-02-04T13:47:02;2.40;;;1.90;;
10934;SDS011;5520;45.752;4.874;2023-02-04T13:49:30;1.90;;;1.70;;
10934;SDS011;5520;45.752;4.874;2023-02-04T13:51:58;1.77;;;1.67;;
10934;SDS011;5520;45.752;4.874;2023-02-04T13:54:26;2.33;;;1.73;;
10934;SDS011;5520;45.752;4.874;2023-02-04T13:56:54;1.80;;;1.70;;
10934;SDS011;5520;45.752;4.874;2023-02-04T13:59:22;2.50;;;1.70;;
10934;SDS011;5520;45.752;4.874;2023-02-04T14:01:50;2.00;;;1.80;;
10934;SDS011;5520;45.752;4.874;2023-02-04T14:04:19;1.70;;;1.60;;
10934;SDS011;5520;45.752;4.874;2023-02-04T14:06:47;2.10;;;2.00;;
10934;SDS011;5520;45.752;4.874;2023-02-04T14:09:15;2.30;;;1.60;;
10934;SDS011;5520;45.752;4.874;2023-02-04T14:11:44;2.87;;;1.80;;
10934;SDS011;5520;45.752;4.874;2023-02-04T14:14:12;1.50;;;1.40;;
10934;SDS011;5520;45.752;4.874;2023-02-04T14:16:40;2.10;;;1.90;;
10934;SDS011;5520;45.752;4.874;2023-02-04T14:19:08;2.43;;;2.10;;
10934;SDS011;5520;45.752;4.874;2023-02-04T14:21:37;3.17;;;1.87;;
10934;SDS011;5520;45.752;4.874;2023-02-04T14:24:05;2.13;;;2.00;;
10934;SDS011;5520;45.752;4.874;2023-02-04T14:26:33;2.17;;;2.07;;
10934;SDS011;5520;45.752;4.874;2023-02-04T14:29:01;2.87;;;1.80;;
10934;SDS011;5520;45.752;4.874;2023-02-04T14:31:30;2.60;;;2.40;;
10934;SDS011;5520;45.752;4.874;2023-02-04T14:33:58;3.13;;;1.97;;
10934;SDS011;5520;45.752;4.874;2023-02-04T14:36:26;2.40;;;2.17;;
10934;SDS011;5520;45.752;4.874;2023-02-04T14:38:55;2.30;;;2.10;;
10934;SDS011;5520;45.752;4.874;2023-02-04T14:41:23;2.50;;;2.30;;
10934;SDS011;5520;45.752;4.874;2023-02-04T14:43:51;2.63;;;2.20;;
10934;SDS011;5520;45.752;4.874;2023-02-04T14:46:20;2.60;;;2.40;;
10934;SDS011;5520;45.752;4.874;2023-02-04T14:48:48;5.40;;;2.50;;
10934;SDS011;5520;45.752;4.874;2023-02-04T14:51:17;2.77;;;2.27;;
10934;SDS011;5520;45.752;4.874;2023-02-04T14:53:45;3.37;;;2.30;;
10934;SDS011;5520;45.752;4.874;2023-02-04T14:56:15;3.03;;;2.50;;
10934;SDS011;5520;45.752;4.874;2023-02-04T14:58:43;3.33;;;2.40;;
10934;SDS011;5520;45.752;4.874;2023-02-04T15:01:11;3.80;;;2.60;;
10934;SDS011;5520;45.752;4.874;2023-02-04T15:03:39;3.37;;;2.27;;
10934;SDS011;5520;45.752;4.874;2023-02-04T15:06:07;3.03;;;2.40;;
10934;SDS011;5520;45.752;4.874;2023-02-04T15:08:35;4.73;;;2.77;;
10934;SDS011;5520;45.752;4.874;2023-02-04T15:11:03;3.27;;;2.93;;
10934;SDS011;5520;45.752;4.874;2023-02-04T15:13:33;2.53;;;2.33;;